Time;durP1;ratioP1;P1;durP2;ratioP2;P2;SDS_P1;SDS_P2;PMS_P1;PMS_P2;Temp;Humidity;BMP_temperature;BMP_pressure;BME280_temperature;BME280_humidity;BME280_pressure;Samples;Min_cycle;Max_cycle;Signal;HPM_P1;HPM_P2
2022/02/12 00:00:34;;;;;;;13.75;6.50;;;;;;;;;;1648471;86;21136;-72
2022/02/12 00:03:00;;;;;;;13.95;7.50;;;;;;;;;;1648625;87;21101;-73
2022/02/12 00:05:26;;;;;;;12.55;6.47;;;;;;;;;;1655739;85;21032;-73
2022/02/12 00:07:53;;;;;;;14.60;8.30;;;;;;;;;;1649631;87;21045;-73
2022/02/12 00:10:20;;;;;;;15.60;8.43;;;;;;;;;;1649495;86;21091;-73
2022/02/12 00:12:46;;;;;;;16.90;8.78;;;;;;;;;;1649242;87;21096;-73
2022/02/12 00:15:12;;;;;;;14.98;8.80;;;;;;;;;;1648456;87;21064;-73
2022/02/12 00:17:39;;;;;;;24.20;11.00;;;;;;;;;;1611196;87;21110;-73
2022/02/12 00:20:05;;;;;;;22.60;11.53;;;;;;;;;;1641618;87;21093;-73
2022/02/12 00:22:31;;;;;;;22.17;12.47;;;;;;;;;;1637688;88;21044;-73
2022/02/12 00:24:58;;;;;;;19.30;9.68;;;;;;;;;;1637588;88;21126;-73
2022/02/12 00:27:23;;;;;;;23.27;11.45;;;;;;;;;;1638287;87;21049;-73
2022/02/12 00:29:49;;;;;;;22.27;10.53;;;;;;;;;;1635902;88;21080;-73
2022/02/12 00:32:15;;;;;;;19.67;10.15;;;;;;;;;;1637472;88;21107;-74
2022/02/12 00:34:41;;;;;;;22.35;11.15;;;;;;;;;;1638705;87;21057;-74
2022/02/12 00:37:08;;;;;;;19.27;10.72;;;;;;;;;;1637561;88;21091;-74
2022/02/12 00:39:34;;;;;;;20.02;9.30;;;;;;;;;;1637279;88;21065;-72
2022/02/12 00:42:00;;;;;;;17.73;9.30;;;;;;;;;;1637352;88;21124;-73
2022/02/12 00:44:26;;;;;;;16.40;8.63;;;;;;;;;;1637665;86;21116;-73
2022/02/12 00:46:52;;;;;;;17.30;8.68;;;;;;;;;;1637702;88;21080;-73
2022/02/12 00:49:18;;;;;;;17.48;9.43;;;;;;;;;;1640939;87;21135;-73
2022/02/12 00:51:44;;;;;;;12.82;7.62;;;;;;;;;;1649564;87;21519;-73
2022/02/12 00:54:10;;;;;;;15.72;8.05;;;;;;;;;;1642990;87;21066;-73
2022/02/12 00:56:38;;;;;;;16.23;8.85;;;;;;;;;;1637497;88;21127;-73
2022/02/12 00:59:04;;;;;;;17.15;8.75;;;;;;;;;;1637428;86;21127;-73
2022/02/12 01:01:32;;;;;;;14.98;8.03;;;;;;;;;;1637493;88;21608;-73
2022/02/12 01:03:58;;;;;;;12.95;7.58;;;;;;;;;;1637628;88;21602;-73
2022/02/12 01:06:24;;;;;;;15.75;8.60;;;;;;;;;;1638402;87;21113;-73
2022/02/12 01:08:50;;;;;;;12.20;6.97;;;;;;;;;;1637517;88;21575;-74
2022/02/12 01:11:16;;;;;;;9.45;4.70;;;;;;;;;;1637461;88;21036;-74
2022/02/12 01:13:42;;;;;;;11.85;5.97;;;;;;;;;;1637595;88;21097;-73
2022/02/12 01:16:08;;;;;;;9.73;5.92;;;;;;;;;;1638840;86;21133;-74
2022/02/12 01:18:34;;;;;;;11.55;6.12;;;;;;;;;;1610688;88;21081;-73
2022/02/12 01:21:00;;;;;;;10.40;5.70;;;;;;;;;;1633412;88;21072;-73
2022/02/12 01:23:27;;;;;;;12.00;6.25;;;;;;;;;;1635537;88;21080;-73
2022/02/12 01:25:52;;;;;;;11.15;6.12;;;;;;;;;;1633503;87;21003;-74
2022/02/12 01:28:19;;;;;;;9.53;5.72;;;;;;;;;;1633421;87;21578;-73
2022/02/12 01:30:44;;;;;;;11.05;6.03;;;;;;;;;;1635979;87;21060;-73
2022/02/12 01:33:11;;;;;;;11.43;6.45;;;;;;;;;;1635587;87;21114;-75
2022/02/12 01:35:37;;;;;;;11.20;5.65;;;;;;;;;;1638195;86;21047;-73
2022/02/12 01:38:03;;;;;;;10.23;6.25;;;;;;;;;;1635928;87;21052;-73
2022/02/12 01:40:30;;;;;;;11.18;5.85;;;;;;;;;;1631633;88;21292;-72
2022/02/12 01:43:01;;;;;;;7.50;4.67;;;;;;;;;;1612729;88;21024;-73
2022/02/12 01:45:25;;;;;;;9.85;5.22;;;;;;;;;;1610716;89;21500;-73
2022/02/12 01:47:51;;;;;;;8.95;5.28;;;;;;;;;;1611238;89;21043;-73
2022/02/12 01:50:19;;;;;;;10.68;5.92;;;;;;;;;;1610257;88;21551;-73
2022/02/12 01:52:45;;;;;;;10.00;6.17;;;;;;;;;;1609888;89;21096;-73
2022/02/12 01:55:12;;;;;;;10.18;5.97;;;;;;;;;;1610072;88;21123;-73
2022/02/12 01:57:39;;;;;;;7.80;4.60;;;;;;;;;;1610062;88;21150;-73
2022/02/12 02:00:07;;;;;;;12.25;5.80;;;;;;;;;;1609930;89;21119;-73
2022/02/12 02:05:25;;;;;;;9.50;5.47;;;;;;;;;;1694255;83;21078;-78
2022/02/12 02:07:51;;;;;;;10.00;5.50;;;;;;;;;;1683735;84;21077;-78
2022/02/12 02:10:17;;;;;;;10.55;5.80;;;;;;;;;;1642043;86;21053;-78
2022/02/12 02:12:44;;;;;;;12.98;6.40;;;;;;;;;;1623132;88;21053;-77
2022/02/12 02:15:10;;;;;;;12.15;6.12;;;;;;;;;;1664780;86;21504;-78
2022/02/12 02:17:36;;;;;;;8.10;5.03;;;;;;;;;;1665225;86;21109;-77
2022/02/12 02:20:03;;;;;;;11.10;5.75;;;;;;;;;;1670079;85;21359;-78
2022/02/12 02:22:31;;;;;;;12.13;7.20;;;;;;;;;;1669272;86;21054;-77
2022/02/12 02:24:56;;;;;;;10.95;7.03;;;;;;;;;;1668793;86;21039;-77
2022/02/12 02:27:28;;;;;;;11.60;6.72;;;;;;;;;;1668924;85;21070;-78
2022/02/12 02:29:50;;;;;;;13.18;6.47;;;;;;;;;;1668722;85;21062;-78
2022/02/12 02:32:17;;;;;;;10.80;6.25;;;;;;;;;;1670597;85;21050;-79
2022/02/12 02:34:48;;;;;;;9.33;4.87;;;;;;;;;;1669134;86;21075;-78
2022/02/12 02:37:15;;;;;;;10.65;5.90;;;;;;;;;;1668731;85;21039;-78
2022/02/12 02:39:41;;;;;;;11.33;5.35;;;;;;;;;;1675743;84;21226;-77
2022/02/12 02:42:07;;;;;;;13.05;5.10;;;;;;;;;;1668720;85;21069;-77
2022/02/12 02:44:34;;;;;;;7.75;4.80;;;;;;;;;;1668676;86;21018;-77
2022/02/12 02:47:32;;;;;;;7.45;4.85;;;;;;;;;;1668781;85;20999;-78
2022/02/12 02:57:11;;;;;;;6.55;3.70;;;;;;;;;;1758541;81;20974;-77
2022/02/12 02:59:37;;;;;;;6.42;3.72;;;;;;;;;;1756052;81;21059;-78
2022/02/12 03:02:03;;;;;;;5.45;3.58;;;;;;;;;;1756118;81;21011;-77
2022/02/12 03:04:31;;;;;;;5.65;3.20;;;;;;;;;;1734787;81;21068;-78
2022/02/12 03:06:57;;;;;;;6.80;4.05;;;;;;;;;;1730163;83;21558;-77
2022/02/12 03:09:23;;;;;;;4.87;3.25;;;;;;;;;;1730464;83;21079;-77
2022/02/12 03:11:51;;;;;;;6.30;3.60;;;;;;;;;;1728456;83;21048;-77
2022/02/12 03:14:17;;;;;;;4.72;2.90;;;;;;;;;;1703036;83;21028;-77
2022/02/12 03:16:43;;;;;;;4.75;3.37;;;;;;;;;;1730274;83;21359;-77
2022/02/12 03:19:09;;;;;;;4.05;2.52;;;;;;;;;;1729605;82;21060;-77
2022/02/12 03:21:35;;;;;;;2.72;2.00;;;;;;;;;;1728837;82;21059;-77
2022/02/12 03:24:01;;;;;;;3.45;2.20;;;;;;;;;;1728232;83;21111;-77
2022/02/12 03:26:28;;;;;;;2.58;1.98;;;;;;;;;;1728348;83;21634;-76
2022/02/12 03:28:54;;;;;;;1.85;1.70;;;;;;;;;;1728411;83;20992;-77
2022/02/12 03:31:20;;;;;;;1.60;1.50;;;;;;;;;;1739119;81;20961;-76
2022/02/12 03:33:46;;;;;;;1.80;1.70;;;;;;;;;;1752655;81;21029;-77
2022/02/12 03:36:12;;;;;;;1.85;1.40;;;;;;;;;;1729510;83;21481;-77
2022/02/12 03:38:39;;;;;;;1.52;1.42;;;;;;;;;;1730979;82;21029;-77
2022/02/12 03:41:07;;;;;;;4.20;1.75;;;;;;;;;;1697168;84;21063;-76
2022/02/12 03:43:34;;;;;;;1.50;1.40;;;;;;;;;;1696430;84;21112;-77
2022/02/12 03:45:59;;;;;;;1.47;1.37;;;;;;;;;;1698083;84;21004;-77
2022/02/12 03:48:27;;;;;;;1.75;1.50;;;;;;;;;;1696728;84;21048;-77
2022/02/12 03:50:53;;;;;;;2.37;1.85;;;;;;;;;;1686344;84;21038;-78
2022/02/12 03:53:19;;;;;;;2.08;1.70;;;;;;;;;;1712672;84;21056;-76
2022/02/12 03:55:45;;;;;;;1.85;1.60;;;;;;;;;;1713179;84;21060;-76
2022/02/12 03:58:15;;;;;;;1.77;1.60;;;;;;;;;;1680999;85;21061;-76
2022/02/12 04:00:42;;;;;;;2.58;1.60;;;;;;;;;;1680148;85;21001;-76
2022/02/12 04:03:08;;;;;;;3.47;1.47;;;;;;;;;;1713758;83;21077;-76
2022/02/12 04:05:34;;;;;;;1.80;1.52;;;;;;;;;;1713685;84;21064;-76
2022/02/12 04:08:01;;;;;;;1.80;1.40;;;;;;;;;;1713123;83;21073;-76
2022/02/12 04:10:28;;;;;;;1.98;1.60;;;;;;;;;;1680485;85;21532;-76
2022/02/12 04:12:54;;;;;;;2.17;1.70;;;;;;;;;;1678504;85;21033;-76
2022/02/12 04:15:21;;;;;;;2.37;1.77;;;;;;;;;;1712689;84;21092;-77
2022/02/12 04:17:47;;;;;;;1.98;1.77;;;;;;;;;;1714114;84;21040;-75
2022/02/12 04:20:15;;;;;;;2.17;1.80;;;;;;;;;;1714150;82;21096;-74
2022/02/12 04:22:41;;;;;;;4.35;2.25;;;;;;;;;;1717981;82;21049;-76
2022/02/12 04:25:09;;;;;;;8.03;3.62;;;;;;;;;;1680431;85;21028;-75
2022/02/12 04:27:35;;;;;;;6.53;2.50;;;;;;;;;;1680279;85;21048;-75
2022/02/12 04:30:01;;;;;;;4.95;2.45;;;;;;;;;;1679514;85;21117;-76
2022/02/12 04:32:27;;;;;;;3.17;2.27;;;;;;;;;;1712852;84;21553;-77
2022/02/12 04:34:53;;;;;;;5.50;2.58;;;;;;;;;;1714734;84;21065;-76
2022/02/12 04:37:20;;;;;;;4.42;1.90;;;;;;;;;;1678501;85;21065;-76
2022/02/12 04:39:46;;;;;;;2.02;1.70;;;;;;;;;;1712535;84;20993;-76
2022/02/12 04:42:12;;;;;;;2.10;1.80;;;;;;;;;;1712536;84;21053;-78
2022/02/12 04:44:39;;;;;;;2.80;2.22;;;;;;;;;;1714444;84;21006;-77
2022/02/12 04:47:05;;;;;;;2.27;1.92;;;;;;;;;;1712023;84;20993;-76
2022/02/12 04:49:34;;;;;;;3.37;1.80;;;;;;;;;;1712586;83;21564;-77
2022/02/12 04:52:00;;;;;;;2.67;1.90;;;;;;;;;;1671048;85;21024;-76
2022/02/12 04:54:26;;;;;;;1.95;1.75;;;;;;;;;;1673932;84;21560;-76
2022/02/12 04:56:52;;;;;;;1.80;1.40;;;;;;;;;;1684603;85;21074;-76
2022/02/12 04:59:18;;;;;;;2.15;1.55;;;;;;;;;;1667417;86;21090;-76
2022/02/12 05:01:43;;;;;;;1.85;1.60;;;;;;;;;;1659131;86;21556;-76
2022/02/12 05:04:13;;;;;;;2.50;1.72;;;;;;;;;;1660776;86;21113;-77
2022/02/12 05:06:39;;;;;;;1.55;1.45;;;;;;;;;;1669346;86;21070;-77
2022/02/12 05:09:05;;;;;;;2.08;1.67;;;;;;;;;;1664974;86;21576;-76
2022/02/12 05:11:31;;;;;;;1.87;1.50;;;;;;;;;;1658798;86;21057;-77
2022/02/12 05:13:57;;;;;;;2.30;1.60;;;;;;;;;;1659808;86;21069;-76
2022/02/12 05:16:23;;;;;;;2.20;1.60;;;;;;;;;;1670640;86;21069;-77
2022/02/12 05:18:50;;;;;;;3.55;1.70;;;;;;;;;;1662057;86;21587;-77
2022/02/12 05:21:16;;;;;;;1.80;1.50;;;;;;;;;;1665578;86;21045;-77
2022/02/12 05:23:44;;;;;;;1.82;1.60;;;;;;;;;;1655889;86;21508;-76
2022/02/12 05:26:11;;;;;;;2.00;1.57;;;;;;;;;;1660066;86;21690;-76
2022/02/12 05:28:37;;;;;;;3.08;1.90;;;;;;;;;;1659038;86;21136;-76
2022/02/12 05:31:03;;;;;;;3.98;2.30;;;;;;;;;;1660835;86;21544;-74
2022/02/12 05:33:29;;;;;;;3.75;2.52;;;;;;;;;;1670307;86;21121;-74
2022/02/12 05:35:55;;;;;;;2.92;1.82;;;;;;;;;;1670084;86;21057;-75
2022/02/12 05:38:21;;;;;;;2.22;1.95;;;;;;;;;;1670406;86;21053;-75
2022/02/12 05:40:47;;;;;;;3.17;2.00;;;;;;;;;;1669752;86;21086;-76
2022/02/12 05:43:13;;;;;;;2.72;2.12;;;;;;;;;;1670483;86;21057;-77
2022/02/12 05:45:41;;;;;;;3.67;2.27;;;;;;;;;;1667591;86;21114;-76
2022/02/12 05:48:07;;;;;;;3.35;2.00;;;;;;;;;;1670458;86;21114;-77
2022/02/12 05:50:33;;;;;;;3.17;2.25;;;;;;;;;;1661007;85;21117;-75
2022/02/12 05:52:59;;;;;;;2.17;1.87;;;;;;;;;;1701041;83;21077;-75
2022/02/12 05:55:25;;;;;;;4.10;2.65;;;;;;;;;;1679436;85;21108;-77
2022/02/12 05:58:01;;;;;;;5.05;3.10;;;;;;;;;;1712390;84;21123;-77
2022/02/12 06:00:27;;;;;;;3.83;2.60;;;;;;;;;;1712067;83;21500;-78
2022/02/12 06:02:53;;;;;;;4.65;2.92;;;;;;;;;;1713439;84;21065;-78
2022/02/12 06:05:19;;;;;;;4.15;2.55;;;;;;;;;;1676013;85;21136;-78
2022/02/12 06:07:46;;;;;;;4.85;2.90;;;;;;;;;;1633087;87;21509;-78
2022/02/12 06:10:13;;;;;;;5.10;2.65;;;;;;;;;;1679099;85;21088;-76
2022/02/12 06:12:40;;;;;;;4.72;3.10;;;;;;;;;;1664178;86;21551;-77
2022/02/12 06:15:06;;;;;;;4.95;3.05;;;;;;;;;;1666294;86;21045;-77
2022/02/12 06:17:33;;;;;;;5.87;2.72;;;;;;;;;;1668034;86;21103;-77
2022/02/12 06:19:59;;;;;;;5.22;2.37;;;;;;;;;;1670114;85;21091;-76
2022/02/12 06:22:27;;;;;;;5.05;2.30;;;;;;;;;;1701553;84;21509;-77
2022/02/12 06:24:53;;;;;;;3.52;2.22;;;;;;;;;;1696612;84;21639;-77
2022/02/12 06:27:19;;;;;;;3.22;2.47;;;;;;;;;;1737121;82;21508;-76
2022/02/12 06:29:45;;;;;;;4.12;2.47;;;;;;;;;;1703479;82;21023;-77
2022/02/12 06:32:11;;;;;;;3.92;2.52;;;;;;;;;;1706358;83;21552;-76
2022/02/12 06:34:38;;;;;;;3.67;2.90;;;;;;;;;;1706571;83;21094;-76
2022/02/12 06:37:04;;;;;;;4.15;2.85;;;;;;;;;;1701725;84;21031;-76
2022/02/12 06:39:31;;;;;;;4.55;3.17;;;;;;;;;;1704821;84;21071;-75
2022/02/12 06:41:57;;;;;;;4.62;2.60;;;;;;;;;;1715033;83;20989;-75
2022/02/12 06:44:23;;;;;;;3.27;2.15;;;;;;;;;;1706647;83;21077;-75
2022/02/12 06:46:49;;;;;;;3.83;2.27;;;;;;;;;;1719639;83;21108;-75
2022/02/12 06:49:16;;;;;;;3.10;2.00;;;;;;;;;;1715508;83;21042;-76
2022/02/12 06:51:43;;;;;;;2.05;1.82;;;;;;;;;;1712884;82;21085;-76
2022/02/12 06:54:09;;;;;;;2.22;1.57;;;;;;;;;;1716764;82;21098;-75
2022/02/12 06:56:35;;;;;;;1.85;1.67;;;;;;;;;;1726848;82;21029;-75
2022/02/12 06:59:02;;;;;;;2.52;1.70;;;;;;;;;;1710684;84;21566;-77
2022/02/12 07:01:28;;;;;;;3.12;1.90;;;;;;;;;;1709343;82;21013;-76
2022/02/12 07:03:56;;;;;;;4.45;2.33;;;;;;;;;;1672323;84;21038;-76
2022/02/12 07:06:23;;;;;;;5.22;2.90;;;;;;;;;;1675804;85;21101;-77
2022/02/12 07:08:50;;;;;;;4.00;2.42;;;;;;;;;;1686060;84;21486;-77
2022/02/12 07:11:18;;;;;;;3.67;2.40;;;;;;;;;;1680218;84;21065;-77
2022/02/12 07:13:45;;;;;;;3.42;2.40;;;;;;;;;;1681061;85;21037;-76
2022/02/12 07:16:11;;;;;;;3.35;2.15;;;;;;;;;;1675475;85;21000;-76
2022/02/12 07:18:38;;;;;;;3.98;2.72;;;;;;;;;;1683755;84;21121;-77
2022/02/12 07:21:06;;;;;;;4.08;2.75;;;;;;;;;;1677022;84;21005;-77
2022/02/12 07:23:32;;;;;;;3.58;2.47;;;;;;;;;;1679313;84;21029;-76
2022/02/12 07:25:58;;;;;;;4.22;3.08;;;;;;;;;;1676294;84;21540;-76
2022/02/12 07:28:29;;;;;;;5.47;3.50;;;;;;;;;;1693997;84;21066;-77
2022/02/12 07:30:55;;;;;;;4.40;2.55;;;;;;;;;;1687796;84;21536;-77
2022/02/12 07:33:22;;;;;;;4.60;3.17;;;;;;;;;;1689046;84;21028;-77
2022/02/12 07:35:52;;;;;;;4.90;3.45;;;;;;;;;;1690139;84;21568;-77
2022/02/12 07:38:18;;;;;;;7.35;4.28;;;;;;;;;;1695009;84;21041;-76
2022/02/12 07:40:44;;;;;;;5.37;2.98;;;;;;;;;;1696567;84;21100;-76
2022/02/12 07:43:10;;;;;;;4.70;2.70;;;;;;;;;;1698366;84;21210;-76
2022/02/12 07:45:36;;;;;;;5.97;3.37;;;;;;;;;;1682033;85;21063;-76
2022/02/12 07:48:02;;;;;;;6.22;3.40;;;;;;;;;;1697570;84;21010;-77
2022/02/12 07:50:28;;;;;;;4.50;2.98;;;;;;;;;;1700208;84;21060;-77
2022/02/12 07:52:54;;;;;;;5.85;3.05;;;;;;;;;;1673020;85;21066;-76
2022/02/12 07:55:20;;;;;;;5.22;2.70;;;;;;;;;;1667754;85;21036;-76
2022/02/12 07:57:46;;;;;;;3.30;2.55;;;;;;;;;;1665299;85;21019;-76
2022/02/12 08:00:13;;;;;;;5.10;2.85;;;;;;;;;;1670581;85;21072;-76
2022/02/12 08:02:39;;;;;;;3.33;2.40;;;;;;;;;;1646687;86;21131;-76
2022/02/12 08:05:06;;;;;;;4.95;2.90;;;;;;;;;;1641234;85;21029;-76
2022/02/12 08:07:34;;;;;;;4.95;3.12;;;;;;;;;;1627421;86;20985;-77
2022/02/12 08:10:02;;;;;;;4.62;2.92;;;;;;;;;;1629470;86;21141;-77
2022/02/12 08:12:28;;;;;;;4.42;3.27;;;;;;;;;;1647182;86;21509;-77
2022/02/12 08:14:56;;;;;;;4.12;2.70;;;;;;;;;;1629202;88;21108;-77
2022/02/12 08:17:23;;;;;;;4.90;2.85;;;;;;;;;;1659180;86;21064;-77
2022/02/12 08:19:49;;;;;;;4.58;2.83;;;;;;;;;;1658937;86;21060;-77
2022/02/12 08:22:16;;;;;;;4.87;3.55;;;;;;;;;;1659145;86;21080;-77
2022/02/12 08:24:42;;;;;;;6.10;3.25;;;;;;;;;;1659634;86;21047;-77
2022/02/12 08:27:11;;;;;;;4.33;3.00;;;;;;;;;;1660545;86;21478;-77
2022/02/12 08:29:38;;;;;;;4.28;2.58;;;;;;;;;;1659956;86;21032;-79
2022/02/12 08:32:05;;;;;;;4.15;2.87;;;;;;;;;;1660417;86;21836;-77
2022/02/12 08:34:31;;;;;;;9.30;5.33;;;;;;;;;;1659710;86;21079;-78
2022/02/12 08:36:57;;;;;;;8.83;5.03;;;;;;;;;;1660301;86;21111;-79
2022/02/12 08:39:23;;;;;;;5.75;2.83;;;;;;;;;;1660085;86;21516;-78
2022/02/12 08:41:50;;;;;;;6.05;2.95;;;;;;;;;;1660183;86;21535;-77
2022/02/12 08:44:16;;;;;;;5.78;2.70;;;;;;;;;;1660468;86;21039;-79
2022/02/12 08:46:43;;;;;;;4.10;2.50;;;;;;;;;;1660292;86;21094;-76
2022/02/12 08:49:09;;;;;;;3.85;2.67;;;;;;;;;;1660343;86;21058;-77
2022/02/12 08:51:37;;;;;;;7.30;2.60;;;;;;;;;;1665046;85;21049;-78
2022/02/12 08:54:05;;;;;;;4.78;3.00;;;;;;;;;;1713957;84;21036;-78
2022/02/12 08:56:33;;;;;;;6.00;2.80;;;;;;;;;;1712300;83;21010;-78
2022/02/12 08:58:59;;;;;;;5.65;2.90;;;;;;;;;;1680409;85;21056;-78
2022/02/12 09:01:26;;;;;;;3.87;2.60;;;;;;;;;;1692556;84;21049;-78
2022/02/12 09:03:52;;;;;;;5.55;2.98;;;;;;;;;;1704663;84;21056;-69
2022/02/12 09:06:18;;;;;;;7.67;3.42;;;;;;;;;;1701108;83;21052;-68
2022/02/12 09:08:48;;;;;;;5.08;3.30;;;;;;;;;;1704875;84;21030;-70
2022/02/12 09:11:12;;;;;;;6.55;3.42;;;;;;;;;;1704708;83;21006;-72
2022/02/12 09:13:38;;;;;;;7.28;3.83;;;;;;;;;;1705550;84;20971;-70
2022/02/12 09:16:05;;;;;;;5.35;3.70;;;;;;;;;;1705576;84;21355;-71
2022/02/12 09:18:31;;;;;;;6.55;3.62;;;;;;;;;;1700091;84;21033;-71
2022/02/12 09:20:57;;;;;;;4.33;2.65;;;;;;;;;;1710393;83;21049;-77
2022/02/12 09:23:23;;;;;;;6.10;3.00;;;;;;;;;;1702197;84;21021;-76
2022/02/12 09:25:49;;;;;;;5.72;3.30;;;;;;;;;;1665799;85;21033;-77
2022/02/12 09:28:17;;;;;;;7.05;3.25;;;;;;;;;;1706257;82;21045;-75
2022/02/12 09:30:44;;;;;;;5.78;3.15;;;;;;;;;;1704553;83;21191;-80
2022/02/12 09:33:10;;;;;;;6.00;2.87;;;;;;;;;;1640409;87;21046;-78
2022/02/12 09:35:37;;;;;;;5.45;3.42;;;;;;;;;;1635716;87;21138;-75
2022/02/12 09:38:04;;;;;;;4.83;2.77;;;;;;;;;;1709121;84;21525;-78
2022/02/12 09:40:31;;;;;;;7.10;3.20;;;;;;;;;;1705517;83;21038;-77
2022/02/12 09:42:59;;;;;;;7.45;3.85;;;;;;;;;;1668416;85;21055;-78
2022/02/12 09:45:26;;;;;;;5.20;2.83;;;;;;;;;;1685857;84;21088;-79
2022/02/12 09:47:52;;;;;;;10.05;4.83;;;;;;;;;;1669577;85;21114;-78
2022/02/12 09:50:18;;;;;;;9.38;3.98;;;;;;;;;;1670616;85;21105;-79
2022/02/12 09:52:46;;;;;;;4.22;2.40;;;;;;;;;;1639706;86;21096;-79
2022/02/12 09:55:12;;;;;;;4.33;2.47;;;;;;;;;;1632762;86;21045;-79
2022/02/12 09:57:38;;;;;;;5.75;3.10;;;;;;;;;;1668299;84;21120;-76
2022/02/12 10:00:07;;;;;;;5.40;2.87;;;;;;;;;;1647485;86;21058;-79
2022/02/12 10:02:32;;;;;;;4.92;2.45;;;;;;;;;;1703501;83;21148;-77
2022/02/12 10:05:17;;;;;;;3.60;2.58;;;;;;;;;;1711734;82;21110;-78
2022/02/12 10:07:44;;;;;;;4.30;2.75;;;;;;;;;;1701077;83;21029;-76
2022/02/12 10:10:11;;;;;;;5.08;2.75;;;;;;;;;;1708420;84;21009;-76
2022/02/12 10:12:37;;;;;;;5.83;2.62;;;;;;;;;;1703847;83;21077;-75
2022/02/12 10:15:05;;;;;;;4.92;2.50;;;;;;;;;;1703359;84;21084;-76
2022/02/12 10:17:31;;;;;;;5.97;3.05;;;;;;;;;;1654146;85;21084;-75
2022/02/12 10:19:57;;;;;;;4.47;2.58;;;;;;;;;;1701590;84;21042;-75
2022/02/12 10:22:23;;;;;;;7.50;2.98;;;;;;;;;;1705437;84;21509;-74
2022/02/12 10:24:51;;;;;;;4.80;2.67;;;;;;;;;;1705939;84;21069;-74
2022/02/12 10:27:18;;;;;;;5.12;3.10;;;;;;;;;;1709240;84;21041;-75
2022/02/12 10:29:47;;;;;;;6.45;2.30;;;;;;;;;;1694699;84;21081;-76
2022/02/12 10:32:17;;;;;;;4.62;2.80;;;;;;;;;;1659955;85;21033;-77
2022/02/12 10:34:43;;;;;;;4.83;2.30;;;;;;;;;;1664645;84;21016;-76
2022/02/12 10:37:11;;;;;;;6.00;2.55;;;;;;;;;;1706116;84;21037;-75
2022/02/12 10:39:39;;;;;;;5.33;2.90;;;;;;;;;;1706861;84;21048;-76
2022/02/12 10:42:06;;;;;;;6.75;3.00;;;;;;;;;;1698082;83;21057;-76
2022/02/12 10:44:33;;;;;;;5.87;2.70;;;;;;;;;;1704889;84;21076;-77
2022/02/12 10:46:59;;;;;;;6.72;3.37;;;;;;;;;;1697201;84;21069;-76
2022/02/12 10:49:25;;;;;;;4.75;2.47;;;;;;;;;;1684028;84;21025;-76
2022/02/12 10:51:53;;;;;;;5.05;2.70;;;;;;;;;;1699113;84;21592;-77
2022/02/12 10:54:19;;;;;;;3.90;2.37;;;;;;;;;;1698383;84;21575;-76
2022/02/12 10:56:47;;;;;;;6.28;2.25;;;;;;;;;;1669851;86;21034;-76
2022/02/12 10:59:13;;;;;;;5.80;2.60;;;;;;;;;;1673051;86;21054;-76
2022/02/12 11:01:39;;;;;;;6.65;3.77;;;;;;;;;;1674683;85;21620;-76
2022/02/12 11:04:07;;;;;;;9.55;5.70;;;;;;;;;;1634571;87;21042;-77
2022/02/12 11:06:33;;;;;;;5.40;3.05;;;;;;;;;;1644525;86;21041;-76
2022/02/12 11:08:59;;;;;;;5.12;2.85;;;;;;;;;;1676502;85;21038;-76
2022/02/12 11:11:25;;;;;;;4.33;2.58;;;;;;;;;;1676097;85;21065;-77
2022/02/12 11:13:52;;;;;;;6.28;3.67;;;;;;;;;;1676159;85;21069;-76
2022/02/12 11:16:18;;;;;;;4.17;2.27;;;;;;;;;;1676292;85;21558;-77
2022/02/12 11:18:45;;;;;;;4.83;2.72;;;;;;;;;;1667131;85;21081;-77
2022/02/12 11:21:11;;;;;;;4.75;2.67;;;;;;;;;;1676039;84;21594;-78
2022/02/12 11:23:37;;;;;;;4.62;2.25;;;;;;;;;;1668521;85;20996;-76
2022/02/12 11:26:05;;;;;;;3.87;2.52;;;;;;;;;;1671412;85;21076;-77
2022/02/12 11:28:31;;;;;;;6.45;3.30;;;;;;;;;;1674103;85;21008;-76
2022/02/12 11:31:16;;;;;;;5.45;2.50;;;;;;;;;;1672751;85;21015;-78
2022/02/12 11:34:00;;;;;;;4.83;2.67;;;;;;;;;;1673147;85;20941;-77
2022/02/12 11:36:26;;;;;;;6.78;3.30;;;;;;;;;;1674657;85;21026;-76
2022/02/12 11:38:54;;;;;;;3.70;2.27;;;;;;;;;;1664659;85;21061;-76
2022/02/12 11:41:24;;;;;;;5.92;2.58;;;;;;;;;;1634224;87;21638;-74
2022/02/12 11:43:51;;;;;;;6.80;2.50;;;;;;;;;;1661660;85;21057;-76
2022/02/12 11:46:35;;;;;;;5.33;2.75;;;;;;;;;;1662219;86;21032;-76
2022/02/12 11:49:20;;;;;;;3.80;2.10;;;;;;;;;;1634016;87;21085;-76
2022/02/12 11:51:46;;;;;;;3.17;2.20;;;;;;;;;;1632374;88;21562;-80
2022/02/12 11:54:14;;;;;;;5.40;2.55;;;;;;;;;;1666141;85;21610;-77
2022/02/12 11:56:42;;;;;;;10.98;4.17;;;;;;;;;;1652590;86;21014;-77
2022/02/12 11:59:09;;;;;;;5.87;3.27;;;;;;;;;;1657328;85;21053;-77
2022/02/12 12:01:38;;;;;;;7.62;3.98;;;;;;;;;;1690752;83;21104;-77
2022/02/12 12:04:07;;;;;;;4.90;2.85;;;;;;;;;;1660392;86;21084;-76
2022/02/12 12:06:33;;;;;;;4.35;2.50;;;;;;;;;;1651895;86;21025;-77
2022/02/12 12:09:07;;;;;;;3.30;2.33;;;;;;;;;;1678509;83;21040;-75
2022/02/12 12:11:33;;;;;;;5.97;3.30;;;;;;;;;;1688598;84;21081;-76
2022/02/12 12:14:20;;;;;;;5.75;3.10;;;;;;;;;;1692950;83;21042;-77
2022/02/12 12:16:57;;;;;;;5.30;2.45;;;;;;;;;;1683048;84;21599;-76
2022/02/12 12:19:26;;;;;;;8.25;3.30;;;;;;;;;;1694457;83;21049;-76
2022/02/12 12:21:56;;;;;;;7.55;3.37;;;;;;;;;;1689042;84;21074;-76
2022/02/12 12:24:22;;;;;;;5.67;3.15;;;;;;;;;;1690128;85;20989;-78
2022/02/12 12:26:49;;;;;;;4.35;2.67;;;;;;;;;;1658634;86;21017;-77
2022/02/12 12:32:02;;;;;;;6.67;3.00;;;;;;;;;;1658677;86;21022;-77
2022/02/12 12:34:30;;;;;;;5.28;3.22;;;;;;;;;;1690580;85;21069;-77
2022/02/12 12:36:59;;;;;;;4.67;2.30;;;;;;;;;;1691542;84;21104;-76
2022/02/12 12:39:30;;;;;;;5.55;2.80;;;;;;;;;;1689621;83;21508;-77
2022/02/12 12:41:56;;;;;;;3.60;2.52;;;;;;;;;;1701862;83;21053;-78
2022/02/12 12:44:25;;;;;;;6.22;2.60;;;;;;;;;;1652802;85;21082;-78
2022/02/12 12:46:51;;;;;;;3.75;2.02;;;;;;;;;;1648339;86;21010;-77
2022/02/12 12:49:29;;;;;;;5.80;2.98;;;;;;;;;;1690429;85;21048;-76
2022/02/12 12:51:55;;;;;;;6.40;3.52;;;;;;;;;;1657819;85;21060;-78
2022/02/12 12:54:34;;;;;;;5.37;3.15;;;;;;;;;;1635310;85;21357;-78
2022/02/12 12:57:01;;;;;;;5.92;3.00;;;;;;;;;;1631722;88;21048;-78
2022/02/12 12:59:27;;;;;;;3.60;2.40;;;;;;;;;;1661461;85;21076;-76
2022/02/12 13:01:56;;;;;;;4.87;2.47;;;;;;;;;;1657903;86;21143;-77
2022/02/12 13:04:22;;;;;;;4.85;3.00;;;;;;;;;;1658373;85;21081;-78
2022/02/12 13:06:50;;;;;;;6.15;3.00;;;;;;;;;;1659349;86;21053;-78
2022/02/12 13:09:17;;;;;;;5.33;3.25;;;;;;;;;;1658747;85;22068;-76
2022/02/12 13:11:43;;;;;;;5.80;3.17;;;;;;;;;;1657354;86;21544;-76
2022/02/12 13:14:09;;;;;;;6.10;3.52;;;;;;;;;;1636773;86;21074;-78
2022/02/12 13:16:37;;;;;;;11.08;4.92;;;;;;;;;;1635673;86;21024;-77
2022/02/12 13:19:13;;;;;;;6.45;3.40;;;;;;;;;;1662284;85;21037;-79
2022/02/12 13:21:50;;;;;;;6.65;3.27;;;;;;;;;;1625367;88;21047;-78
2022/02/12 13:24:16;;;;;;;5.35;2.70;;;;;;;;;;1659975;85;21085;-79
2022/02/12 13:26:48;;;;;;;8.08;3.80;;;;;;;;;;1660409;85;21054;-78
2022/02/12 13:29:18;;;;;;;8.53;3.87;;;;;;;;;;1654480;87;21030;-77
2022/02/12 13:31:47;;;;;;;9.20;4.08;;;;;;;;;;1660708;85;21010;-76
2022/02/12 13:34:15;;;;;;;8.80;4.40;;;;;;;;;;1668411;85;21062;-77
2022/02/12 13:36:42;;;;;;;8.83;4.08;;;;;;;;;;1660237;85;21112;-77
2022/02/12 13:39:08;;;;;;;8.28;4.30;;;;;;;;;;1658207;85;21030;-76
2022/02/12 13:41:40;;;;;;;8.25;3.72;;;;;;;;;;1659834;86;21550;-76
2022/02/12 13:44:06;;;;;;;7.28;4.10;;;;;;;;;;1659772;86;21009;-76
2022/02/12 13:46:35;;;;;;;5.42;2.90;;;;;;;;;;1659829;85;21089;-77
2022/02/12 13:49:16;;;;;;;5.20;3.15;;;;;;;;;;1656970;86;21057;-77
2022/02/12 13:51:55;;;;;;;8.40;3.15;;;;;;;;;;1657750;86;21074;-78
2022/02/12 13:54:21;;;;;;;5.17;2.60;;;;;;;;;;1663395;86;21045;-76
2022/02/12 13:56:54;;;;;;;4.15;2.40;;;;;;;;;;1663765;86;21055;-76
2022/02/12 13:59:20;;;;;;;4.62;2.47;;;;;;;;;;1663911;86;21010;-77
2022/02/12 14:01:47;;;;;;;4.95;2.67;;;;;;;;;;1667359;86;21065;-78
2022/02/12 14:04:13;;;;;;;13.35;6.40;;;;;;;;;;1678597;85;21096;-77
2022/02/12 14:06:39;;;;;;;6.95;3.35;;;;;;;;;;1668510;85;21096;-78
2022/02/12 14:09:07;;;;;;;14.20;6.25;;;;;;;;;;1667142;86;21553;-77
2022/02/12 14:11:35;;;;;;;52.03;21.30;;;;;;;;;;1671657;86;21079;-77
2022/02/12 14:14:02;;;;;;;38.55;16.97;;;;;;;;;;1668032;86;21029;-77
2022/02/12 14:16:29;;;;;;;31.97;12.70;;;;;;;;;;1668093;85;21579;-77
2022/02/12 14:18:55;;;;;;;55.67;22.30;;;;;;;;;;1669226;85;21088;-77
2022/02/12 14:21:21;;;;;;;59.50;20.70;;;;;;;;;;1668451;86;21576;-76
2022/02/12 14:23:47;;;;;;;22.70;8.45;;;;;;;;;;1668293;86;21135;-77
2022/02/12 14:26:13;;;;;;;12.60;5.67;;;;;;;;;;1671308;85;21049;-77
2022/02/12 14:28:39;;;;;;;7.40;4.10;;;;;;;;;;1697480;84;21069;-77
2022/02/12 14:31:05;;;;;;;5.00;3.60;;;;;;;;;;1709325;84;21100;-76
2022/02/12 14:33:34;;;;;;;10.43;4.80;;;;;;;;;;1714556;84;21109;-77
2022/02/12 14:36:01;;;;;;;13.32;5.92;;;;;;;;;;1697929;84;21056;-76
2022/02/12 14:38:32;;;;;;;17.62;8.90;;;;;;;;;;1638776;87;21077;-76
2022/02/12 14:40:55;;;;;;;20.35;10.00;;;;;;;;;;1647565;87;21081;-77
2022/02/12 14:43:21;;;;;;;10.68;6.30;;;;;;;;;;1661627;86;21117;-76
2022/02/12 14:45:48;;;;;;;11.00;6.10;;;;;;;;;;1675527;85;21008;-78
2022/02/12 14:48:14;;;;;;;8.85;4.97;;;;;;;;;;1692728;85;21483;-77
2022/02/12 14:50:40;;;;;;;9.38;5.53;;;;;;;;;;1662124;86;21041;-77
2022/02/12 14:53:06;;;;;;;14.40;7.12;;;;;;;;;;1629817;88;21101;-75